»·PEaware :: SWA1672 KLAS-KPHX

SWA1672 :: KLAS-KPHX

FLIGHT INFORMATION

Flight Status: Arrived
Operator:
Southwest Airlines
More flights by this operator :: More flights under this callsign
Pilot: Chuck O. (4337)
Aircraft: BOEING 737-700
(B737)
More flights by this aircraft type
Origin: KLAS McCarran Intl
United States
Destination: KPHX Phoenix Sky Harbor Intl
United States
More flights between these airports :: More routes between these airports
Route: PRFUM4 PRFUM DRK WOTRO BRUSR1
File this flight plan on PilotEdge
Remarks:
Altitude:
(Current/Filed)
310ft
Speed:
(Current/Filed)
443kts
Departed: 13-May-18 01:50 PM
Arrived: 13-May-18 02:38 PM
Distance/Time
Traveled:
222nm/0:48
Distance/Time
To Go:
Arrived

Flight Plot

Page will automatically refresh every two minutes.

Flight plan parsing failed; only flown route is shown


Map Options




Map Legend


Flown Route
Filed Route
Departure Airport
Arrival Airport
Navaid (VOR, NDB)
Fix

Horizontal Profiles

Position Reports

Time Latitude Longitude Heading Altitude Ground
Speed
13-May-18 13:19 36.080502 -115.145648 269 2188ft 0kts
13-May-18 13:20 36.080502 -115.145648 269 2188ft 0kts
13-May-18 13:21 36.080502 -115.145648 269 2188ft 0kts
13-May-18 13:22 36.080502 -115.145648 269 2188ft 0kts
13-May-18 13:23 36.080502 -115.145648 269 2188ft 0kts
13-May-18 13:24 36.080502 -115.145648 269 2188ft 0kts
13-May-18 13:25 36.080502 -115.145648 269 2188ft 0kts
13-May-18 13:26 36.080502 -115.145648 269 2188ft 0kts
13-May-18 13:27 36.080502 -115.145648 269 2188ft 0kts
13-May-18 13:28 36.080502 -115.145648 269 2188ft 0kts
13-May-18 13:29 36.080502 -115.145648 269 2188ft 0kts
13-May-18 13:30 36.080502 -115.145648 269 2188ft 0kts
13-May-18 13:31 36.080502 -115.145648 269 2188ft 0kts
13-May-18 13:32 36.080502 -115.145235 269 2188ft 2kts
13-May-18 13:33 36.080502 -115.144640 270 2188ft 0kts
13-May-18 13:34 36.080502 -115.144640 270 2188ft 0kts
13-May-18 13:35 36.080502 -115.144640 270 2188ft 0kts
13-May-18 13:36 36.080502 -115.144640 270 2188ft 0kts
13-May-18 13:37 36.080502 -115.144640 270 2188ft 0kts
13-May-18 13:38 36.080502 -115.144640 270 2188ft 0kts
13-May-18 13:39 36.080502 -115.144641 269 2188ft 0kts
13-May-18 13:40 36.080502 -115.144641 269 2188ft 0kts
13-May-18 13:41 36.079869 -115.144838 179 2188ft 0kts
13-May-18 13:42 36.078956 -115.144861 172 2188ft 9kts
13-May-18 13:43 36.078290 -115.140891 92 2188ft 12kts
13-May-18 13:44 36.078296 -115.135153 88 2188ft 16kts
13-May-18 13:45 36.078292 -115.128629 90 2188ft 22kts
13-May-18 13:46 36.078226 -115.122673 121 2188ft 11kts
13-May-18 13:47 36.077740 -115.121821 131 2188ft 0kts
13-May-18 13:48 36.077538 -115.121551 137 2188ft 0kts
13-May-18 13:49 36.076557 -115.121428 227 2188ft 9kts
13-May-18 13:50 36.076330 -115.141316 270 2199ft 158kts
13-May-18 13:51 36.077502 -115.200001 267 5159ft 179kts
13-May-18 13:52 36.057250 -115.264818 206 7036ft 261kts
13-May-18 13:53 35.984694 -115.294526 191 7017ft 277kts
13-May-18 13:54 35.908882 -115.278121 163 9862ft 287kts
13-May-18 13:55 35.853241 -115.204969 110 12277ft 350kts
13-May-18 13:56 35.825583 -115.084621 99 15357ft 381kts
13-May-18 13:57 35.830175 -114.949341 84 18283ft 409kts
13-May-18 13:58 35.841444 -114.807204 85 18938ft 416kts
13-May-18 13:59 35.851758 -114.664888 86 19037ft 422kts
13-May-18 14:00 35.820875 -114.528647 126 21807ft 422kts
13-May-18 14:01 35.754522 -114.406258 128 22950ft 432kts
13-May-18 14:02 35.688794 -114.283056 128 22965ft 431kts
13-May-18 14:03 35.622641 -114.158611 128 23983ft 437kts
13-May-18 14:04 35.554690 -114.032020 129 26142ft 451kts
13-May-18 14:05 35.484574 -113.901990 131 28014ft 463kts
13-May-18 14:06 35.413555 -113.770844 132 30282ft 458kts
13-May-18 14:07 35.342748 -113.640737 132 31027ft 459kts
13-May-18 14:08 35.272185 -113.510731 132 31037ft 457kts
13-May-18 14:09 35.202061 -113.382020 132 31025ft 455kts
13-May-18 14:10 35.131655 -113.253488 132 31037ft 455kts
13-May-18 14:11 35.061088 -113.125191 132 31051ft 454kts
13-May-18 14:12 34.990653 -112.997610 132 31065ft 454kts
13-May-18 14:13 34.920355 -112.870725 133 31076ft 452kts
13-May-18 14:14 34.849757 -112.743341 133 30634ft 448kts
13-May-18 14:15 34.780398 -112.619128 133 29635ft 441kts
13-May-18 14:16 34.724568 -112.485117 130 29967ft 429kts
13-May-18 14:17 34.635955 -112.407038 159 29349ft 382kts
13-May-18 14:18 34.551781 -112.332589 150 28013ft 372kts
13-May-18 14:19 34.467042 -112.251256 154 24977ft 388kts
13-May-18 14:20 34.370072 -112.210669 174 22228ft 363kts
13-May-18 14:21 34.273082 -112.185335 174 19231ft 350kts
13-May-18 14:22 34.179085 -112.161038 172 16222ft 338kts
13-May-18 14:23 34.089762 -112.139721 179 15362ft 318kts
13-May-18 14:24 34.001320 -112.146434 189 15259ft 321kts
13-May-18 14:25 33.911472 -112.156629 188 13479ft 318kts
13-May-18 14:26 33.825795 -112.174390 191 11384ft 302kts
13-May-18 14:27 33.745560 -112.191547 189 9107ft 284kts
13-May-18 14:28 33.671358 -112.207186 188 8001ft 247kts
13-May-18 14:29 33.616924 -112.218664 188 6991ft 240kts
13-May-18 14:30 33.554797 -112.231926 189 5518ft 197kts
13-May-18 14:31 33.503811 -112.242888 189 4867ft 173kts
13-May-18 14:32 33.460866 -112.249112 157 4256ft 149kts
13-May-18 14:33 33.443384 -112.205763 100 3700ft 151kts
13-May-18 14:34 33.440920 -112.155867 94 3210ft 147kts
13-May-18 14:35 33.440825 -112.106989 93 2441ft 146kts
13-May-18 14:36 33.440825 -112.058380 93 1666ft 146kts
13-May-18 14:37 33.440872 -112.014044 90 1143ft 69kts
13-May-18 14:38 33.440063 -112.007177 132 1143ft 0kts
13-May-18 14:39 33.440063 -112.007177 132 1143ft 0kts
13-May-18 14:40 33.439738 -112.005087 93 1143ft 6kts
13-May-18 14:41 33.437913 -112.003780 180 1143ft 11kts
13-May-18 14:42 33.434012 -112.003786 181 1143ft 13kts
13-May-18 14:43 33.432862 -112.001189 88 1143ft 0kts
13-May-18 14:44 33.432860 -112.000608 91 1143ft 10kts
13-May-18 14:45 33.432843 -111.998456 90 1142ft 0kts
13-May-18 14:46 33.433910 -111.997698 44 1143ft 3kts
13-May-18 14:47 33.434050 -111.997251 78 1143ft 0kts
13-May-18 14:48 33.434050 -111.997251 78 1143ft 0kts
13-May-18 14:49 33.434050 -111.997251 78 1143ft 0kts
13-May-18 14:50 33.434050 -111.997251 78 1143ft 0kts
13-May-18 14:51 33.434050 -111.997251 78 1143ft 0kts

Navigation Log

Ident Type
Flight plan parsing failed, navigation log unavailable